createdAt,value
2022-09-28T00:01:37.147Z,94117.09
2022-09-28T00:04:38.763Z,94121.75
2022-09-28T00:07:40.347Z,94119.09
2022-09-28T00:10:42.011Z,94122.56
2022-09-28T00:13:43.981Z,94140.09
2022-09-28T00:16:47.067Z,94116.84
2022-09-28T00:19:48.712Z,94113.59
2022-09-28T00:22:50.315Z,94120.81
2022-09-28T00:25:52.046Z,94124.22
2022-09-28T00:28:54.100Z,94116.97
2022-09-28T00:31:57.788Z,94115.03
2022-09-28T00:34:59.416Z,94118.28
2022-09-28T00:38:01.071Z,94126.41
2022-09-28T00:41:02.641Z,94131.69
2022-09-28T00:44:37.298Z,94128.59
2022-09-28T00:47:45.767Z,94117.91
2022-09-28T00:50:47.663Z,94120.19
2022-09-28T00:53:50.235Z,94110.47
2022-09-28T00:56:51.836Z,94102.78
2022-09-28T00:59:53.657Z,94099.50
2022-09-28T01:02:57.671Z,94102.50
2022-09-28T01:06:02.096Z,94101.69
2022-09-28T01:09:05.053Z,94082.16
2022-09-28T01:12:06.969Z,94083.38
2022-09-28T01:15:09.043Z,94072.22
2022-09-28T01:18:16.275Z,94071.47
2022-09-28T01:21:19.353Z,94070.56
2022-09-28T01:24:31.842Z,94066.59
2022-09-28T01:27:37.190Z,94069.56
2022-09-28T01:30:42.325Z,94073.28
2022-09-28T01:33:45.917Z,94055.13
2022-09-28T01:36:49.366Z,94057.66
2022-09-28T01:39:52.393Z,94054.13
2022-09-28T01:42:58.453Z,94059.09
2022-09-28T01:46:02.014Z,94049.47
2022-09-28T01:49:07.951Z,94046.03
2022-09-28T01:52:13.808Z,94045.25
2022-09-28T01:55:19.145Z,94033.22
2022-09-28T01:58:25.539Z,94029.75
2022-09-28T02:01:29.187Z,94030.16
2022-09-28T02:04:32.758Z,94034.81
2022-09-28T02:07:37.652Z,94028.59
2022-09-28T02:10:42.527Z,94032.81
2022-09-28T02:13:47.876Z,94028.09
2022-09-28T02:16:50.977Z,94001.97
2022-09-28T02:19:52.552Z,93985.81
2022-09-28T02:22:55.846Z,93999.63
2022-09-28T02:26:01.095Z,94008.75
2022-09-28T02:29:04.205Z,94001.09
2022-09-28T02:32:05.919Z,93978.03
2022-09-28T02:35:08.317Z,93965.78
2022-09-28T02:38:10.822Z,93970.75
2022-09-28T02:41:21.550Z,93950.28
2022-09-28T02:44:43.146Z,93956.06
2022-09-28T02:47:56.355Z,93952.72
2022-09-28T02:51:03.343Z,93962.97
2022-09-28T02:54:12.643Z,93970.41
2022-09-28T02:57:24.507Z,93974.09
2022-09-28T03:00:27.444Z,93970.75
2022-09-28T03:03:33.319Z,93958.81
2022-09-28T03:06:40.185Z,93964.56
2022-09-28T03:09:44.059Z,93941.84
2022-09-28T03:12:47.877Z,93925.00
2022-09-28T03:15:50.885Z,93925.00
2022-09-28T03:18:52.557Z,93915.31
2022-09-28T03:21:54.151Z,93904.19
2022-09-28T03:24:55.817Z,93898.06
2022-09-28T03:27:57.581Z,93887.78
2022-09-28T03:31:00.568Z,93876.03
2022-09-28T03:34:02.210Z,93881.59
2022-09-28T03:37:03.777Z,93884.59
2022-09-28T03:40:05.846Z,93884.88
2022-09-28T03:43:07.622Z,93874.50
2022-09-28T03:46:10.653Z,93872.88
2022-09-28T03:49:12.601Z,93867.09
2022-09-28T03:52:14.555Z,93855.94
2022-09-28T03:55:16.250Z,93854.53
2022-09-28T03:58:17.815Z,93846.75
2022-09-28T04:01:20.998Z,93838.31
2022-09-28T04:04:22.905Z,93848.41
2022-09-28T04:07:27.891Z,93844.13
2022-09-28T04:10:32.021Z,93843.66
2022-09-28T04:13:33.817Z,93822.97
2022-09-28T04:16:37.097Z,93828.28
2022-09-28T04:19:41.059Z,93811.75
2022-09-28T04:22:42.676Z,93803.63
2022-09-28T04:25:44.347Z,93805.63
2022-09-28T04:28:46.474Z,93814.22
2022-09-28T04:31:50.753Z,93813.41
2022-09-28T04:34:52.726Z,93792.63
2022-09-28T04:37:54.441Z,93800.47
2022-09-28T04:40:56.126Z,93794.97
2022-09-28T04:43:57.742Z,93778.63
2022-09-28T04:47:04.341Z,93783.50
2022-09-28T04:50:07.358Z,93773.31
2022-09-28T04:53:08.940Z,93766.63
2022-09-28T04:56:11.627Z,93765.88
2022-09-28T04:59:13.277Z,93763.47
2022-09-28T05:02:16.445Z,93755.56
2022-09-28T05:05:18.058Z,93751.47
2022-09-28T05:08:19.690Z,93760.19
2022-09-28T05:11:21.412Z,93761.22
2022-09-28T05:14:22.993Z,93748.78
2022-09-28T05:17:25.957Z,93734.09
2022-09-28T05:20:27.566Z,93732.19
2022-09-28T05:23:29.245Z,93728.25
2022-09-28T05:26:30.944Z,93718.72
2022-09-28T05:29:32.857Z,93720.44
2022-09-28T05:32:39.559Z,93707.75
2022-09-28T05:35:41.217Z,93705.94
2022-09-28T05:38:42.873Z,93720.06
2022-09-28T05:41:44.492Z,93715.03
2022-09-28T05:44:46.071Z,93712.59
2022-09-28T05:47:49.091Z,93705.91
2022-09-28T05:50:50.842Z,93694.31
2022-09-28T05:53:54.326Z,93688.94
2022-09-28T05:56:55.905Z,93711.34
2022-09-28T05:59:57.571Z,93708.78
2022-09-28T06:03:03.430Z,93704.34
2022-09-28T06:06:08.286Z,93718.38
2022-09-28T06:09:09.997Z,93716.78
2022-09-28T06:12:11.722Z,93701.75
2022-09-28T06:15:13.944Z,93686.91
2022-09-28T06:18:17.005Z,93694.22
2022-09-28T06:21:18.643Z,93714.13
2022-09-28T06:24:20.245Z,93688.59
2022-09-28T06:27:21.933Z,93702.53
2022-09-28T06:30:23.944Z,93682.63
2022-09-28T06:33:27.051Z,93690.94
2022-09-28T06:36:29.012Z,93708.00
2022-09-28T06:39:30.632Z,93697.34
2022-09-28T06:42:32.234Z,93682.09
2022-09-28T06:45:33.830Z,93687.97
2022-09-28T06:48:36.839Z,93687.84
2022-09-28T06:51:38.416Z,93692.69
2022-09-28T06:54:40.024Z,93695.44
2022-09-28T06:57:41.717Z,93687.72
2022-09-28T07:00:43.755Z,93698.25
2022-09-28T07:03:46.748Z,93703.66
2022-09-28T07:06:48.425Z,93707.13
2022-09-28T07:09:55.227Z,93702.13
2022-09-28T07:12:58.135Z,93691.97
2022-09-28T07:15:59.802Z,93681.38
2022-09-28T07:19:02.853Z,93687.69
2022-09-28T07:22:05.553Z,93693.22
2022-09-28T07:25:07.783Z,93696.53
2022-09-28T07:28:09.412Z,93691.91
2022-09-28T07:31:11.146Z,93696.03
2022-09-28T07:34:14.272Z,93692.88
2022-09-28T07:37:16.384Z,93701.97
2022-09-28T07:40:18.143Z,93693.88
2022-09-28T07:43:20.169Z,93679.56
2022-09-28T07:46:21.887Z,93692.13
2022-09-28T07:49:24.996Z,93700.16
2022-09-28T07:52:26.596Z,93711.72
2022-09-28T07:55:28.245Z,93699.06
2022-09-28T07:58:29.982Z,93708.53
2022-09-28T08:01:31.789Z,93721.66
2022-09-28T08:04:34.856Z,93724.69
2022-09-28T08:07:36.459Z,93709.63
2022-09-28T08:10:38.255Z,93716.72
2022-09-28T08:13:40.158Z,93739.34
2022-09-28T08:16:41.718Z,93739.09
2022-09-28T08:19:44.717Z,93753.09
2022-09-28T08:22:46.301Z,93746.19
2022-09-28T08:25:48.337Z,93752.19
2022-09-28T08:28:50.022Z,93738.75
2022-09-28T08:31:51.614Z,93743.59
2022-09-28T08:34:54.838Z,93738.56
2022-09-28T08:37:56.421Z,93727.97
2022-09-28T08:41:14.077Z,93739.75
2022-09-28T08:44:16.993Z,93723.34
2022-09-28T08:47:21.285Z,93727.31
2022-09-28T08:50:28.655Z,93732.31
2022-09-28T08:53:36.886Z,93733.06
2022-09-28T08:56:41.072Z,93735.41
2022-09-28T08:59:46.684Z,93730.53
2022-09-28T09:02:48.763Z,93739.97
2022-09-28T09:05:57.980Z,93746.56
2022-09-28T09:09:03.172Z,93748.75
2022-09-28T09:12:09.421Z,93739.28
2022-09-28T09:15:24.448Z,93742.50
2022-09-28T09:18:32.722Z,93741.66
2022-09-28T09:21:40.005Z,93760.03
2022-09-28T09:24:46.660Z,93755.00
2022-09-28T09:27:59.374Z,93767.72
2022-09-28T09:31:07.375Z,93770.00
2022-09-28T09:34:18.778Z,93771.63
2022-09-28T09:37:29.590Z,93761.13
2022-09-28T09:40:42.275Z,93770.66
2022-09-28T09:43:52.196Z,93774.38
2022-09-28T09:46:56.442Z,93779.03
2022-09-28T09:50:05.309Z,93775.16
2022-09-28T09:53:15.800Z,93783.50
2022-09-28T09:56:21.995Z,93787.91
2022-09-28T09:59:26.231Z,93779.03
2022-09-28T10:02:28.850Z,93770.84
2022-09-28T10:05:31.365Z,93772.63
2022-09-28T10:08:38.025Z,93766.31
2022-09-28T10:11:42.508Z,93754.56
2022-09-28T10:14:44.185Z,93747.81
2022-09-28T10:17:45.910Z,93744.94
2022-09-28T10:20:47.567Z,93744.00
2022-09-28T10:23:54.628Z,93750.25
2022-09-28T10:26:59.127Z,93749.66
2022-09-28T10:30:02.889Z,93740.31
2022-09-28T10:33:04.531Z,93743.06
2022-09-28T10:36:06.981Z,93754.34
2022-09-28T10:39:21.738Z,93749.22
2022-09-28T10:42:26.268Z,93746.50
2022-09-28T10:45:30.884Z,93744.88
2022-09-28T10:48:49.247Z,93750.81
2022-09-28T10:51:51.967Z,93750.91
2022-09-28T10:54:55.069Z,93758.34
2022-09-28T10:57:56.727Z,93758.00
2022-09-28T11:01:01.033Z,93755.94
2022-09-28T11:04:04.627Z,93757.31
2022-09-28T11:07:17.415Z,93765.56
2022-09-28T11:10:22.069Z,93764.81
2022-09-28T11:13:23.700Z,93765.81
2022-09-28T11:16:27.470Z,93773.31
2022-09-28T11:19:29.122Z,93768.31
2022-09-28T11:22:38.796Z,93771.09
2022-09-28T11:25:42.087Z,93777.34
2022-09-28T11:28:43.675Z,93779.91
2022-09-28T11:31:46.170Z,93778.81
2022-09-28T11:34:59.196Z,93775.00
2022-09-28T11:38:09.643Z,93770.66
2022-09-28T11:41:26.072Z,93764.19
2022-09-28T11:44:36.181Z,93764.28
2022-09-28T11:47:44.228Z,93767.75
2022-09-28T11:50:48.561Z,93754.06
2022-09-28T11:53:52.256Z,93764.25
2022-09-28T11:56:53.984Z,93759.50
2022-09-28T11:59:58.801Z,93765.06
2022-09-28T12:03:05.910Z,93768.22
2022-09-28T12:06:09.252Z,93765.41
2022-09-28T12:09:14.425Z,93776.75
2022-09-28T12:12:20.211Z,93777.38
2022-09-28T12:15:25.606Z,93777.31
2022-09-28T12:18:30.065Z,93770.16
2022-09-28T12:21:36.328Z,93768.00
2022-09-28T12:24:40.385Z,93773.66
2022-09-28T12:27:51.788Z,93757.53
2022-09-28T12:30:55.813Z,93760.97
2022-09-28T12:33:57.640Z,93761.03
2022-09-28T12:37:09.025Z,93775.16
2022-09-28T12:40:29.108Z,93776.34
2022-09-28T12:43:36.139Z,93790.78
2022-09-28T12:46:46.340Z,93783.19
2022-09-28T12:50:37.012Z,93789.78
2022-09-28T12:53:30.096Z,93791.84
2022-09-28T12:56:35.329Z,93789.88
2022-09-28T12:59:39.160Z,93784.44
2022-09-28T13:02:57.144Z,93800.31
2022-09-28T13:06:13.739Z,93809.63
2022-09-28T13:09:17.225Z,93813.22
2022-09-28T13:12:26.056Z,93805.44
2022-09-28T13:15:32.816Z,93811.28
2022-09-28T13:18:41.162Z,93809.16
2022-09-28T13:21:46.436Z,93807.56
2022-09-28T13:24:48.877Z,93817.78
2022-09-28T13:27:52.363Z,93832.91
2022-09-28T13:30:55.470Z,93856.06
2022-09-28T13:33:59.768Z,93836.50
2022-09-28T13:37:09.234Z,93838.28
2022-09-28T13:40:11.055Z,93841.34
2022-09-28T13:43:22.035Z,93845.03
2022-09-28T13:46:26.862Z,93839.09
2022-09-28T13:49:36.699Z,93842.41
2022-09-28T13:52:43.426Z,93839.53
2022-09-28T13:55:53.505Z,93839.38
2022-09-28T13:58:57.471Z,93837.00
2022-09-28T14:02:06.628Z,93833.19
2022-09-28T14:05:23.651Z,93829.41
2022-09-28T14:08:30.090Z,93841.53
2022-09-28T14:11:41.289Z,93835.78
2022-09-28T14:14:47.014Z,93837.31
2022-09-28T14:17:54.489Z,93837.94
2022-09-28T14:21:05.117Z,93831.00
2022-09-28T14:24:21.878Z,93825.78
2022-09-28T14:27:31.211Z,93835.72
2022-09-28T14:30:45.735Z,93820.69
2022-09-28T14:33:54.903Z,93823.28
2022-09-28T14:36:58.917Z,93829.84
2022-09-28T14:40:08.788Z,93831.44
2022-09-28T14:43:20.900Z,93839.91
2022-09-28T14:46:30.358Z,93838.38
2022-09-28T14:49:45.525Z,93841.16
2022-09-28T14:52:49.209Z,93843.69
2022-09-28T14:55:54.739Z,93844.97
2022-09-28T14:58:57.919Z,93866.41
2022-09-28T15:02:01.307Z,93855.19
2022-09-28T15:05:09.807Z,93863.22
2022-09-28T15:08:11.687Z,93859.75
2022-09-28T15:11:16.954Z,93870.47
2022-09-28T15:14:18.797Z,93859.47
2022-09-28T15:17:22.734Z,93861.69
2022-09-28T15:20:25.490Z,93859.00
2022-09-28T15:23:33.179Z,93858.47
2022-09-28T15:26:36.207Z,93861.44
2022-09-28T15:29:37.938Z,93862.34
2022-09-28T15:32:39.534Z,93851.06
2022-09-28T15:35:41.379Z,93855.16
2022-09-28T15:38:43.177Z,93861.25
2022-09-28T15:41:47.966Z,93862.25
2022-09-28T15:45:10.534Z,93861.09
2022-09-28T15:48:19.110Z,93846.69
2022-09-28T15:51:24.538Z,93842.28
2022-09-28T15:54:27.549Z,93846.44
2022-09-28T15:57:34.773Z,93861.03
2022-09-28T16:00:36.544Z,93864.91
2022-09-28T16:03:38.138Z,93861.22
2022-09-28T16:06:40.691Z,93869.59
2022-09-28T16:09:53.649Z,93861.31
2022-09-28T16:12:58.272Z,93864.84
2022-09-28T16:16:00.257Z,93878.94
2022-09-28T16:19:02.228Z,93885.66
2022-09-28T16:22:05.607Z,93884.84
2022-09-28T16:25:16.321Z,93887.38
2022-09-28T16:28:26.266Z,93904.94
2022-09-28T16:31:29.454Z,93903.84
2022-09-28T16:34:31.088Z,93902.31
2022-09-28T16:37:32.813Z,93900.78
2022-09-28T16:40:35.030Z,93904.25
2022-09-28T16:43:38.080Z,93913.53
2022-09-28T16:46:39.811Z,93915.06
2022-09-28T16:49:41.458Z,93920.72
2022-09-28T16:52:43.279Z,93925.63
2022-09-28T16:55:46.394Z,93930.28
2022-09-28T16:58:49.468Z,93921.38
2022-09-28T17:01:51.056Z,93928.22
2022-09-28T17:04:52.720Z,93923.19
2022-09-28T17:07:59.431Z,93927.78
2022-09-28T17:11:22.584Z,93925.81
2022-09-28T17:14:24.611Z,93923.91
2022-09-28T17:17:26.273Z,93929.31
2022-09-28T17:20:29.611Z,93939.84
2022-09-28T17:23:31.223Z,93929.56
2022-09-28T17:26:32.862Z,93930.03
2022-09-28T17:29:35.898Z,93939.31
2022-09-28T17:32:37.509Z,93937.75
2022-09-28T17:35:39.847Z,93940.03
2022-09-28T17:38:41.676Z,93931.53
2022-09-28T17:41:43.407Z,93930.34
2022-09-28T17:44:46.469Z,93937.59
2022-09-28T17:47:48.237Z,93941.25
2022-09-28T17:50:49.961Z,93938.59
2022-09-28T17:53:51.632Z,93939.78
2022-09-28T17:56:53.273Z,93949.16
2022-09-28T17:59:56.292Z,93956.00
2022-09-28T18:02:58.308Z,93949.00
2022-09-28T18:06:01.780Z,93946.69
2022-09-28T18:09:03.810Z,93959.44
2022-09-28T18:12:05.726Z,93949.00
2022-09-28T18:15:09.560Z,93946.28
2022-09-28T18:18:11.179Z,93948.13
2022-09-28T18:21:12.805Z,93950.91
2022-09-28T18:24:14.499Z,93950.16
2022-09-28T18:27:16.196Z,93945.19
2022-09-28T18:30:19.322Z,93941.72
2022-09-28T18:33:21.082Z,93948.38
2022-09-28T18:36:27.550Z,93945.69
2022-09-28T18:39:29.176Z,93942.31
2022-09-28T18:42:30.817Z,93947.75
2022-09-28T18:45:34.106Z,93945.22
2022-09-28T18:48:35.850Z,93951.31
2022-09-28T18:51:37.916Z,93949.88
2022-09-28T18:54:39.668Z,93944.53
2022-09-28T18:57:41.302Z,93955.38
2022-09-28T19:00:44.541Z,93954.09
2022-09-28T19:03:46.153Z,93958.78
2022-09-28T19:06:47.828Z,93958.94
2022-09-28T19:09:50.182Z,93967.25
2022-09-28T19:12:51.748Z,93969.94
2022-09-28T19:15:54.879Z,93967.63
2022-09-28T19:18:56.936Z,93961.56
2022-09-28T19:21:58.727Z,93966.13
2022-09-28T19:25:00.435Z,93968.06
2022-09-28T19:28:02.576Z,93966.13
2022-09-28T19:31:07.196Z,93963.50
2022-09-28T19:34:11.840Z,93966.19
2022-09-28T19:37:15.773Z,93969.59
2022-09-28T19:40:17.406Z,93974.28
2022-09-28T19:43:19.131Z,93969.66
2022-09-28T19:46:22.401Z,93979.84
2022-09-28T19:49:25.418Z,93990.56
2022-09-28T19:52:27.072Z,93995.28
2022-09-28T19:55:28.740Z,93991.19
2022-09-28T19:58:31.562Z,93998.16
2022-09-28T20:01:34.773Z,94009.38
2022-09-28T20:04:36.461Z,94004.53
2022-09-28T20:07:38.076Z,94006.31
2022-09-28T20:10:39.690Z,94006.81
2022-09-28T20:13:41.382Z,94009.66
2022-09-28T20:16:44.526Z,94009.31
2022-09-28T20:19:46.222Z,94010.13
2022-09-28T20:22:47.861Z,94022.78
2022-09-28T20:25:52.149Z,94019.66
2022-09-28T20:28:54.172Z,94024.72
2022-09-28T20:31:57.343Z,94039.38
2022-09-28T20:34:58.916Z,94046.97
2022-09-28T20:38:00.716Z,94043.97
2022-09-28T20:41:02.401Z,94043.03
2022-09-28T20:44:05.888Z,94048.31
2022-09-28T20:47:09.445Z,94056.03
2022-09-28T20:50:11.021Z,94058.03
2022-09-28T20:53:12.644Z,94055.72
2022-09-28T20:56:16.821Z,94062.28
2022-09-28T20:59:18.517Z,94068.06
2022-09-28T21:02:21.553Z,94077.22
2022-09-28T21:05:23.420Z,94079.69
2022-09-28T21:08:25.329Z,94083.47
2022-09-28T21:11:27.550Z,94088.16
2022-09-28T21:14:29.255Z,94100.22
2022-09-28T21:17:32.284Z,94102.97
2022-09-28T21:20:33.932Z,94107.66
2022-09-28T21:23:36.056Z,94115.09
2022-09-28T21:26:37.797Z,94114.16
2022-09-28T21:29:39.490Z,94114.13
2022-09-28T21:32:42.471Z,94114.91
2022-09-28T21:35:44.115Z,94112.56
2022-09-28T21:38:45.785Z,94114.81
2022-09-28T21:41:47.379Z,94122.50
2022-09-28T21:44:49.159Z,94122.88
2022-09-28T21:47:52.221Z,94127.41
2022-09-28T21:50:54.432Z,94137.50
2022-09-28T21:53:56.664Z,94130.31
2022-09-28T21:56:58.240Z,94136.31
2022-09-28T21:59:59.852Z,94136.66
2022-09-28T22:03:03.149Z,94131.34
2022-09-28T22:06:05.359Z,94128.28
2022-09-28T22:09:07.092Z,94132.88
2022-09-28T22:12:09.056Z,94140.47
2022-09-28T22:15:10.828Z,94131.31
2022-09-28T22:18:13.821Z,94136.28
2022-09-28T22:21:16.718Z,94131.22
2022-09-28T22:24:18.642Z,94128.19
2022-09-28T22:27:20.364Z,94131.84
2022-09-28T22:30:22.006Z,94139.88
2022-09-28T22:33:25.488Z,94131.84
2022-09-28T22:36:27.567Z,94133.34
2022-09-28T22:39:29.246Z,94136.88
2022-09-28T22:42:30.887Z,94133.38
2022-09-28T22:45:32.585Z,94139.84
2022-09-28T22:48:36.051Z,94132.56
2022-09-28T22:51:37.829Z,94136.81
2022-09-28T22:54:39.424Z,94135.66
2022-09-28T22:57:41.523Z,94131.47
2022-09-28T23:00:43.221Z,94141.03
2022-09-28T23:03:46.311Z,94131.78
2022-09-28T23:06:47.875Z,94135.22
2022-09-28T23:09:51.444Z,94139.88
2022-09-28T23:12:53.205Z,94144.47
2022-09-28T23:15:55.478Z,94143.81
2022-09-28T23:18:58.633Z,94138.91
2022-09-28T23:22:00.194Z,94144.31
2022-09-28T23:25:01.992Z,94145.50
2022-09-28T23:28:03.844Z,94132.81
2022-09-28T23:31:08.717Z,94138.28
2022-09-28T23:34:11.816Z,94131.09
2022-09-28T23:37:13.496Z,94136.84
2022-09-28T23:40:15.094Z,94146.06
2022-09-28T23:43:16.685Z,94138.72
2022-09-28T23:46:21.033Z,94142.94
2022-09-28T23:49:24.465Z,94139.78
2022-09-28T23:52:26.097Z,94134.31
2022-09-28T23:55:27.722Z,94141.59
2022-09-28T23:58:29.411Z,94136.22
